Welsh, Louisiana
Current Conditions -  °F | °C
As of 2:30 PM on Monday 26 Jan 2015 (Local Time) from K3R7 Reporting Station
Clear Clear  
Wind Chill: 62°   Ceiling: Unl
Heat Index: 62°   Visibility: 10mi
Dew Point: 36°   Wind: 6mph
Humidity: 38%   Direction: 320°NW
Pressure: 30.12"   Gusts: NA
Location:  30.24°N, 92.82°W
Report Text: K3R7 262030Z AUTO 32005KT 10SM CLR 16/02 A3012 RMK AO2 T01640020
Loading
Personal Weather Stations






























Interactive Weather Map New forecast layout! Learn more

10-Day Weather Forecast

Advertisements
Track Severe Weather on mobile